createdAt,value
2019-05-02T00:00:11.932Z,13.60
2019-05-02T00:02:41.544Z,13.60
2019-05-02T00:05:11.973Z,13.60
2019-05-02T00:07:42.938Z,13.60
2019-05-02T00:10:14.882Z,13.60
2019-05-02T00:12:44.605Z,13.50
2019-05-02T00:15:16.502Z,13.50
2019-05-02T00:17:45.543Z,13.50
2019-05-02T00:20:21.051Z,13.50
2019-05-02T00:22:48.050Z,13.50
2019-05-02T00:25:18.588Z,13.50
2019-05-02T00:27:47.526Z,13.40
2019-05-02T00:30:17.062Z,13.40
2019-05-02T00:32:46.018Z,13.40
2019-05-02T00:35:15.376Z,13.40
2019-05-02T00:37:44.766Z,13.40
2019-05-02T00:40:14.174Z,13.40
2019-05-02T00:42:43.394Z,13.30
2019-05-02T00:45:14.069Z,13.30
2019-05-02T00:47:51.491Z,13.20
2019-05-02T00:50:21.238Z,13.20
2019-05-02T00:52:50.120Z,13.00
2019-05-02T00:55:19.096Z,13.00
2019-05-02T00:57:50.898Z,13.00
2019-05-02T01:00:19.810Z,13.00
2019-05-02T01:02:53.891Z,13.00
2019-05-02T01:05:23.180Z,13.00
2019-05-02T01:07:55.951Z,12.90
2019-05-02T01:10:23.067Z,12.90
2019-05-02T01:15:20.929Z,12.90
2019-05-02T01:17:49.750Z,12.90
2019-05-02T01:20:22.218Z,12.90
2019-05-02T01:22:52.331Z,12.80
2019-05-02T01:25:20.380Z,12.80
2019-05-02T01:28:07.195Z,12.80
2019-05-02T01:30:54.179Z,12.80
2019-05-02T01:33:29.671Z,12.80
2019-05-02T01:36:09.414Z,12.80
2019-05-02T01:38:42.185Z,12.90
2019-05-02T01:41:11.082Z,12.80
2019-05-02T01:43:39.911Z,12.80
2019-05-02T01:46:09.111Z,12.90
2019-05-02T01:48:40.017Z,12.90
2019-05-02T01:51:10.118Z,12.80
2019-05-02T01:53:39.271Z,12.80
2019-05-02T01:56:08.466Z,12.80
2019-05-02T01:58:37.771Z,12.80
2019-05-02T02:01:07.495Z,12.70
2019-05-02T02:03:40.500Z,12.60
2019-05-02T02:06:08.061Z,12.60
2019-05-02T02:08:37.737Z,12.60
2019-05-02T02:11:06.746Z,12.60
2019-05-02T02:13:36.396Z,12.50
2019-05-02T02:16:06.393Z,12.50
2019-05-02T02:18:39.751Z,12.40
2019-05-02T02:21:20.165Z,12.40
2019-05-02T02:24:02.993Z,12.40
2019-05-02T02:26:31.799Z,12.40
2019-05-02T02:29:03.041Z,12.20
2019-05-02T02:31:31.970Z,12.30
2019-05-02T02:34:00.864Z,12.30
2019-05-02T02:36:34.198Z,12.20
2019-05-02T02:39:06.850Z,12.20
2019-05-02T02:41:31.875Z,12.10
2019-05-02T02:44:08.286Z,12.10
2019-05-02T02:46:40.114Z,12.10
2019-05-02T02:49:14.051Z,12.10
2019-05-02T02:51:40.013Z,12.10
2019-05-02T02:54:09.236Z,12.00
2019-05-02T02:56:40.770Z,11.90
2019-05-02T02:59:08.907Z,12.00
2019-05-02T03:01:38.217Z,12.00
2019-05-02T03:04:09.902Z,11.90
2019-05-02T03:06:43.947Z,11.90
2019-05-02T03:09:08.797Z,11.80
2019-05-02T03:11:45.998Z,11.70
2019-05-02T03:14:28.320Z,11.80
2019-05-02T03:16:57.895Z,11.80
2019-05-02T03:19:26.904Z,11.70
2019-05-02T03:22:01.008Z,11.80
2019-05-02T03:24:27.314Z,11.70
2019-05-02T03:26:58.502Z,11.70
2019-05-02T03:29:39.674Z,11.60
2019-05-02T03:32:14.988Z,11.60
2019-05-02T03:34:44.842Z,11.50
2019-05-02T03:37:03.170Z,11.60
2019-05-02T03:39:30.853Z,11.70
2019-05-02T03:42:02.814Z,11.60
2019-05-02T03:44:31.516Z,11.60
2019-05-02T03:47:02.357Z,11.60
2019-05-02T03:49:31.783Z,11.50
2019-05-02T03:52:02.902Z,11.50
2019-05-02T03:54:31.532Z,11.30
2019-05-02T03:57:00.411Z,11.30
2019-05-02T03:59:38.254Z,11.40
2019-05-02T04:02:00.499Z,11.30
2019-05-02T04:04:30.238Z,11.30
2019-05-02T04:07:00.965Z,11.20
2019-05-02T04:09:38.762Z,11.10
2019-05-02T04:12:11.770Z,11.10
2019-05-02T04:14:38.909Z,11.10
2019-05-02T04:17:10.771Z,11.00
2019-05-02T04:19:40.866Z,11.10
2019-05-02T04:22:11.972Z,11.10
2019-05-02T04:24:47.884Z,11.10
2019-05-02T04:27:13.220Z,11.20
2019-05-02T04:29:42.593Z,11.20
2019-05-02T04:32:14.298Z,11.20
2019-05-02T04:34:42.086Z,11.20
2019-05-02T04:37:11.259Z,11.20
2019-05-02T04:39:40.103Z,11.10
2019-05-02T04:42:13.041Z,11.20
2019-05-02T04:44:52.994Z,11.20
2019-05-02T04:47:16.942Z,11.30
2019-05-02T04:49:41.088Z,11.20
2019-05-02T04:52:12.457Z,11.30
2019-05-02T04:54:40.667Z,11.30
2019-05-02T04:57:09.576Z,11.40
2019-05-02T04:59:39.580Z,11.40
2019-05-02T05:02:09.326Z,11.40
2019-05-02T05:04:44.795Z,11.40
2019-05-02T05:07:09.461Z,11.50
2019-05-02T05:09:40.014Z,11.40
2019-05-02T05:12:09.381Z,11.40
2019-05-02T05:14:43.020Z,11.40
2019-05-02T05:17:08.891Z,11.40
2019-05-02T05:19:37.789Z,11.40
2019-05-02T05:22:11.639Z,11.40
2019-05-02T05:24:47.584Z,11.50
2019-05-02T05:27:18.925Z,11.50
2019-05-02T05:29:48.571Z,11.50
2019-05-02T05:32:17.963Z,11.50
2019-05-02T05:34:47.839Z,11.60
2019-05-02T05:37:19.677Z,11.60
2019-05-02T05:39:52.397Z,11.70
2019-05-02T05:42:23.175Z,11.80
2019-05-02T05:44:49.879Z,11.80
2019-05-02T05:47:21.269Z,11.90
2019-05-02T05:49:52.312Z,12.00
2019-05-02T05:52:20.444Z,12.00
2019-05-02T05:54:49.694Z,12.10
2019-05-02T05:57:21.061Z,12.10
2019-05-02T05:59:49.432Z,12.10
2019-05-02T06:02:18.700Z,12.20
2019-05-02T06:04:50.148Z,12.20
2019-05-02T06:07:20.104Z,12.20
2019-05-02T06:09:49.389Z,12.20
2019-05-02T06:12:18.387Z,12.20
2019-05-02T06:14:47.212Z,12.30
2019-05-02T06:17:23.094Z,12.40
2019-05-02T06:19:53.537Z,12.40
2019-05-02T06:22:24.388Z,12.50
2019-05-02T06:24:52.170Z,12.60
2019-05-02T06:27:26.081Z,12.60
2019-05-02T06:29:56.103Z,12.60
2019-05-02T06:32:22.787Z,12.70
2019-05-02T06:34:51.799Z,12.70
2019-05-02T06:37:20.747Z,12.90
2019-05-02T06:39:49.716Z,12.90
2019-05-02T06:42:18.612Z,12.90
2019-05-02T06:44:47.765Z,13.00
2019-05-02T06:47:16.736Z,13.00
2019-05-02T06:49:45.704Z,13.10
2019-05-02T06:52:15.003Z,13.10
2019-05-02T06:54:43.919Z,13.20
2019-05-02T06:57:13.163Z,13.20
2019-05-02T06:59:42.155Z,13.30
2019-05-02T07:02:11.258Z,13.30
2019-05-02T07:04:40.560Z,13.40
2019-05-02T07:07:09.641Z,13.40
2019-05-02T07:09:41.546Z,13.30
2019-05-02T07:12:14.739Z,13.30
2019-05-02T07:14:41.803Z,13.30
2019-05-02T07:17:32.137Z,13.30
2019-05-02T07:20:03.876Z,13.40
2019-05-02T07:22:33.211Z,13.40
2019-05-02T07:25:06.780Z,13.50
2019-05-02T07:27:33.608Z,13.60
2019-05-02T07:30:04.637Z,13.60
2019-05-02T07:32:33.639Z,13.70
2019-05-02T07:35:02.669Z,13.80
2019-05-02T07:37:31.614Z,13.90
2019-05-02T07:40:00.596Z,13.90
2019-05-02T07:42:30.184Z,14.00
2019-05-02T07:44:59.103Z,14.00
2019-05-02T07:49:58.063Z,14.00
2019-05-02T07:52:28.867Z,13.90
2019-05-02T07:55:01.089Z,13.50
2019-05-02T07:57:30.551Z,13.30
2019-05-02T08:00:00.933Z,13.10
2019-05-02T08:02:30.592Z,13.10
2019-05-02T08:04:59.851Z,13.10
2019-05-02T08:07:34.135Z,12.90
2019-05-02T08:10:04.596Z,12.90
2019-05-02T08:12:33.558Z,12.80
2019-05-02T08:15:07.491Z,13.00
2019-05-02T08:17:33.867Z,13.10
2019-05-02T08:20:05.075Z,13.10
2019-05-02T08:22:33.375Z,13.20
2019-05-02T08:25:02.271Z,13.20
2019-05-02T08:27:39.514Z,13.20
2019-05-02T08:30:17.532Z,13.20
2019-05-02T08:32:46.351Z,13.30
2019-05-02T08:35:15.333Z,13.30
2019-05-02T08:37:44.422Z,13.30
2019-05-02T08:40:13.502Z,13.30
2019-05-02T08:42:42.419Z,13.50
2019-05-02T08:45:11.611Z,13.40
2019-05-02T08:47:42.236Z,13.40
2019-05-02T08:50:11.335Z,13.20
2019-05-02T08:52:42.113Z,13.00
2019-05-02T08:55:11.042Z,13.00
2019-05-02T08:57:40.253Z,13.00
2019-05-02T09:00:12.223Z,13.10
2019-05-02T09:02:42.139Z,13.10
2019-05-02T09:05:11.862Z,13.10
2019-05-02T09:07:43.108Z,13.20
2019-05-02T09:10:12.669Z,13.10
2019-05-02T09:12:45.310Z,13.30
2019-05-02T09:15:12.705Z,13.20
2019-05-02T09:17:46.110Z,13.30
2019-05-02T09:20:20.236Z,13.40
2019-05-02T09:22:46.487Z,13.40
2019-05-02T09:25:17.584Z,13.30
2019-05-02T09:27:48.953Z,13.30
2019-05-02T09:30:22.769Z,13.30
2019-05-02T09:32:49.039Z,13.30
2019-05-02T09:35:19.116Z,13.50
2019-05-02T09:37:48.152Z,13.50
2019-05-02T09:42:47.629Z,13.70
2019-05-02T09:45:22.758Z,13.70
2019-05-02T09:47:58.225Z,13.70
2019-05-02T09:50:29.433Z,13.70
2019-05-02T09:52:53.578Z,13.80
2019-05-02T09:55:22.766Z,14.10
2019-05-02T09:57:52.128Z,14.40
2019-05-02T10:00:57.429Z,14.40
2019-05-02T10:03:26.678Z,14.70
2019-05-02T10:05:55.650Z,14.70
2019-05-02T10:08:24.705Z,14.60
2019-05-02T10:10:53.778Z,14.60
2019-05-02T10:13:23.166Z,14.70
2019-05-02T10:15:52.766Z,14.70
2019-05-02T10:18:28.325Z,14.70
2019-05-02T10:20:52.911Z,14.70
2019-05-02T10:23:23.398Z,14.90
2019-05-02T10:25:52.529Z,14.90
2019-05-02T10:28:22.861Z,15.10
2019-05-02T10:30:56.455Z,15.10
2019-05-02T10:33:23.347Z,15.20
2019-05-02T10:35:52.755Z,15.60
2019-05-02T10:38:22.701Z,15.40
2019-05-02T10:40:54.801Z,15.60
2019-05-02T10:43:23.484Z,15.80
2019-05-02T10:45:57.715Z,16.10
2019-05-02T10:48:28.611Z,16.30
2019-05-02T10:51:16.679Z,16.10
2019-05-02T10:53:47.198Z,16.00
2019-05-02T10:56:16.304Z,15.90
2019-05-02T10:58:45.703Z,16.00
2019-05-02T11:01:16.031Z,16.00
2019-05-02T11:03:47.540Z,16.30
2019-05-02T11:06:16.836Z,16.40
2019-05-02T11:08:46.203Z,16.50
2019-05-02T11:11:15.264Z,16.50
2019-05-02T11:14:01.129Z,16.60
2019-05-02T11:16:43.567Z,16.60
2019-05-02T11:19:16.753Z,16.60
2019-05-02T11:21:55.548Z,16.50
2019-05-02T11:24:16.567Z,16.70
2019-05-02T11:26:45.539Z,16.70
2019-05-02T11:29:14.429Z,16.90
2019-05-02T11:31:43.687Z,17.20
2019-05-02T11:34:12.989Z,17.20
2019-05-02T11:36:42.333Z,17.00
2019-05-02T11:39:20.675Z,17.10
2019-05-02T11:41:42.297Z,17.20
2019-05-02T11:44:12.119Z,17.30
2019-05-02T11:46:45.381Z,17.10
2019-05-02T11:49:12.770Z,17.20
2019-05-02T11:51:42.275Z,17.10
2019-05-02T11:54:12.890Z,17.40
2019-05-02T11:56:48.868Z,17.50
2019-05-02T11:59:14.708Z,17.50
2019-05-02T12:01:59.097Z,17.70
2019-05-02T12:04:18.673Z,17.80
2019-05-02T12:06:49.934Z,17.90
2019-05-02T12:09:18.476Z,17.80
2019-05-02T12:11:51.943Z,17.90
2019-05-02T12:14:18.912Z,17.90
2019-05-02T12:16:47.840Z,18.10
2019-05-02T12:19:17.205Z,18.20
2019-05-02T12:21:54.870Z,18.20
2019-05-02T12:24:23.896Z,18.30
2019-05-02T12:26:52.927Z,18.10
2019-05-02T12:29:21.898Z,17.70
2019-05-02T12:31:54.799Z,17.80
2019-05-02T12:34:21.790Z,17.70
2019-05-02T12:36:52.342Z,17.90
2019-05-02T12:39:22.167Z,18.00
2019-05-02T12:41:53.697Z,18.10
2019-05-02T12:44:22.545Z,18.00
2019-05-02T12:46:51.914Z,18.00
2019-05-02T12:49:26.960Z,18.20
2019-05-02T12:51:52.551Z,18.10
2019-05-02T12:54:22.057Z,18.10
2019-05-02T12:56:52.887Z,18.10
2019-05-02T12:59:22.502Z,18.20
2019-05-02T13:01:51.885Z,18.00
2019-05-02T13:04:22.929Z,18.00
2019-05-02T13:06:53.006Z,18.00
2019-05-02T13:09:23.348Z,18.00
2019-05-02T13:11:59.135Z,17.90
2019-05-02T13:14:31.863Z,18.00
2019-05-02T13:17:05.617Z,18.10
2019-05-02T13:19:40.163Z,18.10
2019-05-02T13:22:22.255Z,18.20
2019-05-02T13:24:57.342Z,18.00
2019-05-02T13:27:26.306Z,18.10
2019-05-02T13:29:55.504Z,18.10
2019-05-02T13:32:42.781Z,18.10
2019-05-02T13:35:34.479Z,18.20
2019-05-02T13:38:05.651Z,18.10
2019-05-02T13:40:41.673Z,18.10
2019-05-02T13:43:12.340Z,18.30
2019-05-02T13:46:19.014Z,18.20
2019-05-02T13:48:48.239Z,18.20
2019-05-02T13:51:17.252Z,18.20
2019-05-02T13:53:57.631Z,18.40
2019-05-02T13:56:46.066Z,18.40
2019-05-02T13:59:15.580Z,18.50
2019-05-02T14:01:46.155Z,18.70
2019-05-02T14:04:15.236Z,18.90
2019-05-02T14:06:44.215Z,18.90
2019-05-02T14:09:29.246Z,19.00
2019-05-02T14:12:21.893Z,19.40
2019-05-02T14:14:51.901Z,19.80
2019-05-02T14:17:22.830Z,19.60
2019-05-02T14:20:01.159Z,19.60
2019-05-02T14:22:23.008Z,19.50
2019-05-02T14:24:52.064Z,19.70
2019-05-02T14:27:22.314Z,20.20
2019-05-02T14:29:52.527Z,20.20
2019-05-02T14:32:26.310Z,20.90
2019-05-02T14:35:18.574Z,20.90
2019-05-02T14:37:44.991Z,21.00
2019-05-02T14:40:24.352Z,20.90
2019-05-02T14:42:57.794Z,20.10
2019-05-02T14:45:30.726Z,20.10
2019-05-02T14:47:57.803Z,20.40
2019-05-02T14:50:26.565Z,20.60
2019-05-02T14:52:57.314Z,20.70
2019-05-02T14:55:29.141Z,20.60
2019-05-02T14:58:02.226Z,20.90
2019-05-02T15:00:31.569Z,20.90
2019-05-02T15:03:00.527Z,21.00
2019-05-02T15:05:29.721Z,20.90
2019-05-02T15:08:02.513Z,20.90
2019-05-02T15:10:29.699Z,20.90
2019-05-02T15:12:59.883Z,20.90
2019-05-02T15:15:33.591Z,20.90
2019-05-02T15:18:00.291Z,20.60
2019-05-02T15:20:37.249Z,20.60
2019-05-02T15:22:59.935Z,20.60
2019-05-02T15:25:29.178Z,20.80
2019-05-02T15:28:00.068Z,20.70
2019-05-02T15:30:29.827Z,20.70
2019-05-02T15:33:03.852Z,20.70
2019-05-02T15:35:46.635Z,20.40
2019-05-02T15:38:24.025Z,20.30
2019-05-02T15:40:50.519Z,20.20
2019-05-02T15:43:17.734Z,19.70
2019-05-02T15:45:46.826Z,19.40
2019-05-02T15:48:22.796Z,19.20
2019-05-02T15:50:52.915Z,19.20
2019-05-02T15:53:24.354Z,19.00
2019-05-02T15:55:53.383Z,18.90
2019-05-02T15:58:23.770Z,18.90
2019-05-02T16:01:08.785Z,18.70
2019-05-02T16:03:46.531Z,18.60
2019-05-02T16:06:16.410Z,18.50
2019-05-02T16:08:46.748Z,18.40
2019-05-02T16:11:17.428Z,18.30
2019-05-02T16:13:51.440Z,18.20
2019-05-02T16:16:18.002Z,18.10
2019-05-02T16:18:46.887Z,18.00
2019-05-02T16:21:28.456Z,18.10
2019-05-02T16:24:13.314Z,18.00
2019-05-02T16:26:42.741Z,18.00
2019-05-02T16:29:14.884Z,18.00
2019-05-02T16:31:44.408Z,18.00
2019-05-02T16:34:15.045Z,18.10
2019-05-02T16:36:44.043Z,18.00
2019-05-02T16:39:13.631Z,18.10
2019-05-02T16:41:49.264Z,18.00
2019-05-02T16:44:14.988Z,17.90
2019-05-02T16:46:44.146Z,17.80
2019-05-02T16:49:16.856Z,17.70
2019-05-02T16:51:44.331Z,17.70
2019-05-02T16:54:13.478Z,17.70
2019-05-02T16:56:45.904Z,17.70
2019-05-02T16:59:16.986Z,17.70
2019-05-02T17:01:44.894Z,17.70
2019-05-02T17:04:13.818Z,17.70
2019-05-02T17:06:42.713Z,17.70
2019-05-02T17:09:28.693Z,17.70
2019-05-02T17:11:58.761Z,17.70
2019-05-02T17:14:27.735Z,17.80
2019-05-02T17:16:56.630Z,17.70
2019-05-02T17:19:26.190Z,17.90
2019-05-02T17:21:56.701Z,17.90
2019-05-02T17:24:26.279Z,17.90
2019-05-02T17:26:55.403Z,17.90
2019-05-02T17:29:24.529Z,17.90
2019-05-02T17:31:57.426Z,17.80
2019-05-02T17:34:29.949Z,17.80
2019-05-02T17:36:59.274Z,17.80
2019-05-02T17:39:25.963Z,17.60
2019-05-02T17:41:57.084Z,17.50
2019-05-02T17:44:25.980Z,17.50
2019-05-02T17:46:58.452Z,17.50
2019-05-02T17:49:34.832Z,17.40
2019-05-02T17:52:26.799Z,17.40
2019-05-02T17:54:52.838Z,17.20
2019-05-02T17:57:21.954Z,17.20
2019-05-02T17:59:52.011Z,17.20
2019-05-02T18:02:21.988Z,17.00
2019-05-02T18:04:52.149Z,17.00
2019-05-02T18:07:25.272Z,16.90
2019-05-02T18:09:52.494Z,16.80
2019-05-02T18:12:21.967Z,16.80
2019-05-02T18:14:58.787Z,16.80
2019-05-02T18:17:22.028Z,16.60
2019-05-02T18:19:52.083Z,16.60
2019-05-02T18:22:25.896Z,16.60
2019-05-02T18:24:52.654Z,16.50
2019-05-02T18:27:22.290Z,16.40
2019-05-02T18:29:51.791Z,16.40
2019-05-02T18:32:24.514Z,16.40
2019-05-02T18:34:51.959Z,16.30
2019-05-02T18:37:21.891Z,16.30
2019-05-02T18:39:55.776Z,16.30
2019-05-02T18:42:25.496Z,16.20
2019-05-02T18:44:54.401Z,16.20
2019-05-02T18:47:24.823Z,16.10
2019-05-02T18:50:00.932Z,16.10
2019-05-02T18:52:35.717Z,16.00
2019-05-02T18:54:55.800Z,16.00
2019-05-02T18:57:26.461Z,15.90
2019-05-02T18:59:56.389Z,15.90
2019-05-02T19:02:26.318Z,15.90
2019-05-02T19:04:57.683Z,15.90
2019-05-02T19:07:33.006Z,15.80
2019-05-02T19:09:58.948Z,15.80
2019-05-02T19:12:27.806Z,15.70
2019-05-02T19:14:57.597Z,15.60
2019-05-02T19:17:28.159Z,15.50
2019-05-02T19:19:57.146Z,15.50
2019-05-02T19:22:25.950Z,15.50
2019-05-02T19:24:54.911Z,15.40
2019-05-02T19:27:49.059Z,15.40
2019-05-02T19:30:18.849Z,15.40
2019-05-02T19:32:48.034Z,15.30
2019-05-02T19:35:17.346Z,15.30
2019-05-02T19:37:47.820Z,15.30
2019-05-02T19:40:26.802Z,15.20
2019-05-02T19:42:52.707Z,15.20
2019-05-02T19:45:21.926Z,15.10
2019-05-02T19:47:54.341Z,15.00
2019-05-02T19:50:43.066Z,14.80
2019-05-02T19:53:17.122Z,14.40
2019-05-02T19:55:38.195Z,14.40
2019-05-02T19:58:07.364Z,14.20
2019-05-02T20:00:41.574Z,14.20
2019-05-02T20:03:07.580Z,14.00
2019-05-02T20:05:36.985Z,14.00
2019-05-02T20:08:06.156Z,13.90
2019-05-02T20:13:03.836Z,13.80
2019-05-02T20:15:35.199Z,13.90
2019-05-02T20:18:04.988Z,13.80
2019-05-02T20:20:51.856Z,13.80
2019-05-02T20:23:28.568Z,13.80
2019-05-02T20:25:52.209Z,13.80
2019-05-02T20:28:21.812Z,13.70
2019-05-02T20:30:52.657Z,13.60
2019-05-02T20:33:22.331Z,13.60
2019-05-02T20:35:52.860Z,13.50
2019-05-02T20:38:22.165Z,13.50
2019-05-02T20:40:52.279Z,13.50
2019-05-02T20:43:22.673Z,13.50
2019-05-02T20:45:52.800Z,13.50
2019-05-02T20:48:22.812Z,13.50
2019-05-02T20:50:52.150Z,13.50
2019-05-02T20:53:30.225Z,13.40
2019-05-02T20:55:52.512Z,13.40
2019-05-02T20:58:22.026Z,13.40
2019-05-02T21:01:04.754Z,13.40
2019-05-02T21:03:22.311Z,13.40
2019-05-02T21:06:13.373Z,13.50
2019-05-02T21:09:02.218Z,13.50
2019-05-02T21:11:32.407Z,13.50
2019-05-02T21:14:02.156Z,13.50
2019-05-02T21:16:32.245Z,13.50
2019-05-02T21:19:02.215Z,13.50
2019-05-02T21:21:33.121Z,13.50
2019-05-02T21:24:02.336Z,13.40
2019-05-02T21:26:32.897Z,13.20
2019-05-02T21:29:02.463Z,13.20
2019-05-02T21:31:31.920Z,13.20
2019-05-02T21:34:07.257Z,13.10
2019-05-02T21:36:35.695Z,13.00
2019-05-02T21:39:08.982Z,13.00
2019-05-02T21:41:38.497Z,12.90
2019-05-02T21:44:07.699Z,12.80
2019-05-02T21:46:36.760Z,12.80
2019-05-02T21:49:05.726Z,12.80
2019-05-02T21:51:43.936Z,12.80
2019-05-02T21:54:37.727Z,12.80
2019-05-02T21:57:12.139Z,12.80
2019-05-02T21:59:42.095Z,12.70
2019-05-02T22:02:13.010Z,12.70
2019-05-02T22:04:43.003Z,12.70
2019-05-02T22:07:12.339Z,12.80
2019-05-02T22:09:41.696Z,12.70
2019-05-02T22:12:12.003Z,12.70
2019-05-02T22:14:42.938Z,12.70
2019-05-02T22:19:42.162Z,12.70
2019-05-02T22:22:12.236Z,12.60
2019-05-02T22:24:42.111Z,12.70
2019-05-02T22:27:12.400Z,12.70
2019-05-02T22:29:43.021Z,12.60
2019-05-02T22:32:12.374Z,12.60
2019-05-02T22:34:42.581Z,12.60
2019-05-02T22:37:13.934Z,12.60
2019-05-02T22:39:51.015Z,12.60
2019-05-02T22:42:21.905Z,12.60
2019-05-02T22:44:51.357Z,12.60
2019-05-02T22:47:22.723Z,12.60
2019-05-02T22:49:52.107Z,12.60
2019-05-02T22:52:21.899Z,12.60
2019-05-02T22:54:52.350Z,12.50
2019-05-02T22:59:51.959Z,12.50
2019-05-02T23:02:22.015Z,12.50
2019-05-02T23:04:52.675Z,12.50
2019-05-02T23:07:22.188Z,12.50
2019-05-02T23:09:52.631Z,12.40
2019-05-02T23:12:24.632Z,12.40
2019-05-02T23:14:52.675Z,12.40
2019-05-02T23:17:23.180Z,12.40
2019-05-02T23:19:52.802Z,12.30
2019-05-02T23:22:21.962Z,12.40
2019-05-02T23:25:09.046Z,12.40
2019-05-02T23:28:06.199Z,12.40
2019-05-02T23:30:35.396Z,12.40
2019-05-02T23:33:04.255Z,12.40
2019-05-02T23:35:34.305Z,12.30
2019-05-02T23:38:03.326Z,12.20
2019-05-02T23:40:32.210Z,12.20
2019-05-02T23:43:01.866Z,12.20
2019-05-02T23:45:31.602Z,12.20
2019-05-02T23:48:02.120Z,12.20
2019-05-02T23:50:31.542Z,12.20
2019-05-02T23:53:02.173Z,12.20
2019-05-02T23:55:32.190Z,12.20
2019-05-02T23:58:02.910Z,12.20
